createdAt,value
2018-11-29T00:00:02.190Z,2.1
2018-11-29T00:10:01.048Z,2.0
2018-11-29T00:15:01.022Z,2.0
2018-11-29T00:30:01.044Z,2.1
2018-11-29T00:45:01.806Z,2.1
2018-11-29T01:00:01.131Z,2.1
2018-11-29T01:15:01.054Z,2.1
2018-11-29T01:30:01.048Z,2.1
2018-11-29T01:45:01.141Z,2.1
2018-11-29T01:55:01.028Z,2.2
2018-11-29T02:00:00.983Z,2.2
2018-11-29T02:15:01.067Z,2.2
2018-11-29T02:20:01.072Z,2.1
2018-11-29T02:30:01.078Z,2.1
2018-11-29T02:35:01.139Z,2.0
2018-11-29T02:40:01.082Z,1.9
2018-11-29T02:45:01.053Z,1.9
2018-11-29T03:00:01.063Z,1.9
2018-11-29T03:15:01.102Z,1.9
2018-11-29T03:30:01.092Z,1.8
2018-11-29T03:45:01.084Z,1.9
2018-11-29T04:00:01.081Z,1.9
2018-11-29T04:15:01.114Z,1.9
2018-11-29T04:30:01.020Z,1.9
2018-11-29T04:45:01.099Z,2.0
2018-11-29T04:50:01.092Z,1.9
2018-11-29T04:55:01.236Z,2.0
2018-11-29T05:00:01.125Z,2.0
2018-11-29T05:15:01.155Z,2.1
2018-11-29T05:30:01.063Z,2.1
2018-11-29T05:35:01.148Z,2.2
2018-11-29T05:45:01.174Z,2.3
2018-11-29T06:00:01.271Z,2.4
2018-11-29T06:15:01.106Z,2.4
2018-11-29T06:20:01.120Z,2.5
2018-11-29T06:30:01.221Z,2.6
2018-11-29T06:45:01.222Z,2.6
2018-11-29T07:00:01.305Z,2.7
2018-11-29T07:15:01.239Z,2.7
2018-11-29T07:30:01.559Z,2.8
2018-11-29T07:45:01.223Z,2.8
2018-11-29T07:55:01.685Z,2.9
2018-11-29T08:00:01.243Z,2.9
2018-11-29T08:15:01.320Z,3.0
2018-11-29T08:30:01.248Z,3.0
2018-11-29T08:35:01.293Z,3.1
2018-11-29T08:45:01.244Z,3.1
2018-11-29T08:50:01.488Z,3.2
2018-11-29T09:00:01.319Z,3.3
2018-11-29T09:10:01.254Z,3.4
2018-11-29T09:15:01.345Z,3.4
2018-11-29T09:20:01.299Z,3.5
2018-11-29T09:30:01.253Z,3.6
2018-11-29T09:45:01.562Z,3.7
2018-11-29T09:55:01.420Z,3.8
2018-11-29T10:00:01.288Z,3.8
2018-11-29T10:05:01.301Z,3.9
2018-11-29T10:15:01.290Z,3.9
2018-11-29T10:25:01.253Z,4.0
2018-11-29T10:30:01.264Z,4.0
2018-11-29T10:40:01.288Z,4.1
2018-11-29T10:45:01.243Z,4.1
2018-11-29T10:55:01.270Z,4.2
2018-11-29T11:00:01.272Z,4.2
2018-11-29T11:10:01.255Z,4.3
2018-11-29T11:15:01.373Z,4.3
2018-11-29T11:30:01.466Z,4.3
2018-11-29T11:45:01.548Z,4.3
2018-11-29T12:00:01.425Z,4.3
2018-11-29T12:05:01.312Z,4.4
2018-11-29T12:15:01.693Z,4.5
2018-11-29T12:30:01.338Z,4.6
2018-11-29T12:40:01.296Z,4.7
2018-11-29T12:45:01.319Z,4.7
2018-11-29T12:55:01.302Z,4.8
2018-11-29T13:00:01.313Z,4.8
2018-11-29T13:15:01.685Z,4.8
2018-11-29T13:25:01.306Z,4.9
2018-11-29T13:30:01.317Z,4.9
2018-11-29T13:45:01.318Z,4.9
2018-11-29T14:00:01.340Z,4.9
2018-11-29T14:15:01.389Z,4.9
2018-11-29T14:20:01.338Z,5.0
2018-11-29T14:30:01.344Z,5.0
2018-11-29T14:45:01.315Z,5.1
2018-11-29T15:00:01.337Z,5.1
2018-11-29T15:05:01.330Z,5.2
2018-11-29T15:15:01.370Z,5.2
2018-11-29T15:30:01.340Z,5.1
2018-11-29T15:35:01.406Z,5.2
2018-11-29T15:45:01.433Z,5.2
2018-11-29T16:00:01.420Z,5.2
2018-11-29T16:15:01.417Z,5.2
2018-11-29T16:30:01.345Z,5.2
2018-11-29T16:45:01.356Z,5.2
2018-11-29T17:00:01.309Z,5.1
2018-11-29T17:15:01.406Z,5.2
2018-11-29T17:30:01.545Z,5.2
2018-11-29T17:45:01.307Z,5.2
2018-11-29T18:00:01.366Z,5.3
2018-11-29T18:15:01.447Z,5.3
2018-11-29T18:30:01.310Z,5.3
2018-11-29T18:40:01.377Z,5.2
2018-11-29T18:45:01.248Z,5.2
2018-11-29T19:00:01.378Z,5.2
2018-11-29T19:15:01.386Z,5.2
2018-11-29T19:30:04.253Z,5.2
2018-11-29T19:45:01.304Z,5.2
2018-11-29T20:00:01.317Z,5.2
2018-11-29T20:15:01.352Z,5.2
2018-11-29T20:20:01.254Z,5.3
2018-11-29T20:30:01.328Z,5.3
2018-11-29T20:45:01.327Z,5.3
2018-11-29T20:50:01.302Z,5.4
2018-11-29T21:00:01.303Z,5.4
2018-11-29T21:15:01.343Z,5.4
2018-11-29T21:25:01.310Z,5.5
2018-11-29T21:30:01.253Z,5.5
2018-11-29T21:45:01.321Z,5.6
2018-11-29T22:00:01.323Z,5.7
2018-11-29T22:15:01.343Z,5.7
2018-11-29T22:20:01.239Z,5.8
2018-11-29T22:30:01.354Z,5.8
2018-11-29T22:45:01.342Z,5.8
2018-11-29T23:00:01.403Z,5.8
2018-11-29T23:05:01.304Z,5.9
2018-11-29T23:15:01.421Z,5.9
2018-11-29T23:20:01.288Z,6.0
2018-11-29T23:30:01.392Z,6.0
2018-11-29T23:45:01.317Z,6.0
2018-11-29T23:50:06.259Z,6.1
